sensor_id;sensor_type;location;lat;lon;timestamp;pressure;altitude;pressure_sealevel;temperature;humidity
21449;BME280;10885;52.830;13.788;2024-02-04T06:18:45;101013.28;;;6.58;86.21
21449;BME280;10885;52.830;13.788;2024-02-04T06:23:48;101011.75;;;6.40;86.23
21449;BME280;10885;52.830;13.788;2024-02-04T06:28:51;100993.03;;;6.29;87.27
21449;BME280;10885;52.830;13.788;2024-02-04T06:33:54;101003.19;;;6.18;87.12
21449;BME280;10885;52.830;13.788;2024-02-04T06:38:57;100995.03;;;6.12;87.87
21449;BME280;10885;52.830;13.788;2024-02-04T06:44:00;101005.56;;;6.07;88.05
21449;BME280;10885;52.830;13.788;2024-02-04T06:49:02;101005.19;;;6.02;88.19
21449;BME280;10885;52.830;13.788;2024-02-04T06:54:05;101010.25;;;6.02;88.19
21449;BME280;10885;52.830;13.788;2024-02-04T06:59:08;101013.53;;;6.01;88.33
21449;BME280;10885;52.830;13.788;2024-02-04T07:04:10;101011.91;;;6.02;88.18
21449;BME280;10885;52.830;13.788;2024-02-04T07:09:13;101010.44;;;6.14;88.57
21449;BME280;10885;52.830;13.788;2024-02-04T07:14:16;101008.03;;;6.15;88.19
21449;BME280;10885;52.830;13.788;2024-02-04T07:19:18;101008.03;;;6.15;88.11
21449;BME280;10885;52.830;13.788;2024-02-04T07:24:21;101005.22;;;6.23;87.87
21449;BME280;10885;52.830;13.788;2024-02-04T07:29:24;100977.78;;;6.29;88.36
21449;BME280;10885;52.830;13.788;2024-02-04T07:34:27;100982.63;;;6.36;88.32
21449;BME280;10885;52.830;13.788;2024-02-04T07:39:29;100973.72;;;6.41;88.12
21449;BME280;10885;52.830;13.788;2024-02-04T07:44:34;100974.78;;;6.53;87.48
21449;BME280;10885;52.830;13.788;2024-02-04T07:49:36;100980.38;;;6.60;87.38
21449;BME280;10885;52.830;13.788;2024-02-04T07:54:39;100993.97;;;6.70;87.27
21449;BME280;10885;52.830;13.788;2024-02-04T07:59:42;100970.31;;;6.82;87.14
21449;BME280;10885;52.830;13.788;2024-02-04T08:04:45;100970.19;;;6.90;nan
21449;BME280;10885;52.830;13.788;2024-02-04T08:09:48;100965.09;;;7.01;86.38
21449;BME280;10885;52.830;13.788;2024-02-04T08:14:53;100963.97;;;7.07;85.81
21449;BME280;10885;52.830;13.788;2024-02-04T08:19:55;100961.41;;;7.17;85.71
21449;BME280;10885;52.830;13.788;2024-02-04T08:24:58;100955.00;;;7.33;84.57
21449;BME280;10885;52.830;13.788;2024-02-04T08:30:01;100947.56;;;7.46;84.66
21449;BME280;10885;52.830;13.788;2024-02-04T08:35:05;100948.03;;;7.52;84.48
21449;BME280;10885;52.830;13.788;2024-02-04T08:40:08;100931.41;;;7.68;84.47
21449;BME280;10885;52.830;13.788;2024-02-04T08:45:13;100937.78;;;7.73;83.62
21449;BME280;10885;52.830;13.788;2024-02-04T08:50:15;100941.38;;;7.65;83.89
21449;BME280;10885;52.830;13.788;2024-02-04T08:55:18;100922.56;;;7.52;84.25
21449;BME280;10885;52.830;13.788;2024-02-04T09:00:21;100906.66;;;7.55;83.89
21449;BME280;10885;52.830;13.788;2024-02-04T09:05:24;100905.53;;;7.73;83.57
21449;BME280;10885;52.830;13.788;2024-02-04T09:10:26;100911.56;;;7.86;83.42
21449;BME280;10885;52.830;13.788;2024-02-04T09:15:29;100912.91;;;7.81;83.55
21449;BME280;10885;52.830;13.788;2024-02-04T09:20:32;100900.16;;;7.81;82.65
21449;BME280;10885;52.830;13.788;2024-02-04T09:25:35;100899.22;;;7.90;83.09
21449;BME280;10885;52.830;13.788;2024-02-04T09:30:38;100900.09;;;7.91;82.22
21449;BME280;10885;52.830;13.788;2024-02-04T09:35:41;100908.34;;;7.99;81.97
21449;BME280;10885;52.830;13.788;2024-02-04T09:40:44;100911.47;;;8.06;81.63
21449;BME280;10885;52.830;13.788;2024-02-04T09:45:47;100915.25;;;8.11;81.53
21449;BME280;10885;52.830;13.788;2024-02-04T09:50:51;100912.22;;;8.05;80.63
21449;BME280;10885;52.830;13.788;2024-02-04T09:55:55;100909.22;;;7.99;80.60
21449;BME280;10885;52.830;13.788;2024-02-04T10:01:00;100898.59;;;8.05;81.72
21449;BME280;10885;52.830;13.788;2024-02-04T10:06:03;100887.13;;;8.22;80.38
21449;BME280;10885;52.830;13.788;2024-02-04T10:11:06;100879.75;;;8.36;80.57
21449;BME280;10885;52.830;13.788;2024-02-04T10:16:09;100874.44;;;8.45;80.06
21449;BME280;10885;52.830;13.788;2024-02-04T10:21:19;100867.34;;;8.41;79.65
21449;BME280;10885;52.830;13.788;2024-02-04T10:26:22;100888.03;;;8.34;79.96
21449;BME280;10885;52.830;13.788;2024-02-04T10:31:26;100881.72;;;8.29;79.15
21449;BME280;10885;52.830;13.788;2024-02-04T10:36:30;100852.56;;;8.25;79.97
21449;BME280;10885;52.830;13.788;2024-02-04T10:41:34;100838.91;;;8.25;79.02
21449;BME280;10885;52.830;13.788;2024-02-04T10:46:39;100828.28;;;8.19;79.03
21449;BME280;10885;52.830;13.788;2024-02-04T10:51:42;100829.56;;;8.13;78.00
21449;BME280;10885;52.830;13.788;2024-02-04T10:56:46;100827.34;;;8.18;76.81
21449;BME280;10885;52.830;13.788;2024-02-04T11:01:56;100820.72;;;8.20;77.77
21449;BME280;10885;52.830;13.788;2024-02-04T11:07:01;100804.66;;;8.21;79.98
21449;BME280;10885;52.830;13.788;2024-02-04T11:12:12;100818.72;;;8.28;78.09
21449;BME280;10885;52.830;13.788;2024-02-04T11:27:59;100812.00;;;8.40;77.18
21449;BME280;10885;52.830;13.788;2024-02-04T11:33:03;100799.78;;;8.36;77.32
21449;BME280;10885;52.830;13.788;2024-02-04T11:38:07;100794.81;;;8.37;77.06
21449;BME280;10885;52.830;13.788;2024-02-04T11:43:11;100793.50;;;8.43;76.66
21449;BME280;10885;52.830;13.788;2024-02-04T11:48:14;100779.94;;;8.55;75.18
21449;BME280;10885;52.830;13.788;2024-02-04T11:53:19;100758.34;;;8.62;75.70
21449;BME280;10885;52.830;13.788;2024-02-04T11:58:22;100767.88;;;8.65;75.77
21449;BME280;10885;52.830;13.788;2024-02-04T12:03:32;100754.78;;;8.72;76.87
21449;BME280;10885;52.830;13.788;2024-02-04T12:08:35;100750.19;;;8.80;75.32
21449;BME280;10885;52.830;13.788;2024-02-04T12:13:39;100754.31;;;8.77;74.65
21449;BME280;10885;52.830;13.788;2024-02-04T12:18:50;100757.53;;;8.75;76.11
21449;BME280;10885;52.830;13.788;2024-02-04T12:23:54;100758.88;;;8.70;75.18
21449;BME280;10885;52.830;13.788;2024-02-04T12:28:58;100744.47;;;8.70;76.00
21449;BME280;10885;52.830;13.788;2024-02-04T12:34:01;100748.00;;;8.72;74.12
21449;BME280;10885;52.830;13.788;2024-02-04T12:39:05;100756.19;;;8.92;74.19
21449;BME280;10885;52.830;13.788;2024-02-04T12:44:18;100748.88;;;8.85;76.07
21449;BME280;10885;52.830;13.788;2024-02-04T12:49:21;100741.25;;;8.73;74.33
21449;BME280;10885;52.830;13.788;2024-02-04T12:54:24;100750.00;;;8.65;75.42
21449;BME280;10885;52.830;13.788;2024-02-04T12:59:31;100742.69;;;8.57;76.26
21449;BME280;10885;52.830;13.788;2024-02-04T13:04:38;100734.28;;;8.59;75.17
21449;BME280;10885;52.830;13.788;2024-02-04T13:09:42;100746.03;;;8.56;75.28
21449;BME280;10885;52.830;13.788;2024-02-04T13:14:45;100758.78;;;8.45;76.12
21449;BME280;10885;52.830;13.788;2024-02-04T13:19:47;100755.22;;;8.43;75.52
21449;BME280;10885;52.830;13.788;2024-02-04T13:24:50;100748.91;;;8.37;75.75
21449;BME280;10885;52.830;13.788;2024-02-04T13:29:53;100763.88;;;8.33;76.14
21449;BME280;10885;52.830;13.788;2024-02-04T13:34:56;100751.34;;;8.36;76.34
21449;BME280;10885;52.830;13.788;2024-02-04T13:40:11;100731.59;;;8.45;75.90
21449;BME280;10885;52.830;13.788;2024-02-04T13:45:15;100728.84;;;8.42;74.98
21449;BME280;10885;52.830;13.788;2024-02-04T13:50:20;100719.19;;;8.38;75.54
21449;BME280;10885;52.830;13.788;2024-02-04T13:55:23;100712.75;;;8.31;75.71
21449;BME280;10885;52.830;13.788;2024-02-04T14:00:26;100726.50;;;8.22;75.10
21449;BME280;10885;52.830;13.788;2024-02-04T14:05:29;100722.84;;;8.18;75.66
21449;BME280;10885;52.830;13.788;2024-02-04T14:10:31;100721.84;;;8.16;75.66
21449;BME280;10885;52.830;13.788;2024-02-04T14:15:34;100728.06;;;8.20;76.26
21449;BME280;10885;52.830;13.788;2024-02-04T14:20:37;100720.53;;;8.21;75.59
21449;BME280;10885;52.830;13.788;2024-02-04T14:25:39;100714.00;;;8.25;75.19
21449;BME280;10885;52.830;13.788;2024-02-04T14:30:42;100720.63;;;8.23;75.03
21449;BME280;10885;52.830;13.788;2024-02-04T14:35:45;100725.06;;;8.25;75.44
21449;BME280;10885;52.830;13.788;2024-02-04T14:40:47;100711.19;;;8.22;75.47
21449;BME280;10885;52.830;13.788;2024-02-04T14:45:50;100712.88;;;8.21;74.90
21449;BME280;10885;52.830;13.788;2024-02-04T14:50:53;100723.31;;;8.24;75.58
21449;BME280;10885;52.830;13.788;2024-02-04T14:55:56;100725.75;;;8.23;75.46
21449;BME280;10885;52.830;13.788;2024-02-04T15:01:00;100712.00;;;8.21;74.96
21449;BME280;10885;52.830;13.788;2024-02-04T15:06:03;100716.31;;;8.22;75.65
21449;BME280;10885;52.830;13.788;2024-02-04T15:11:07;100715.09;;;8.16;74.93
21449;BME280;10885;52.830;13.788;2024-02-04T15:16:11;100708.88;;;8.13;74.97
21449;BME280;10885;52.830;13.788;2024-02-04T15:21:15;100712.09;;;8.10;75.00
21449;BME280;10885;52.830;13.788;2024-02-04T15:26:18;100719.75;;;8.10;75.26
21449;BME280;10885;52.830;13.788;2024-02-04T15:31:23;100703.34;;;8.07;75.13
21449;BME280;10885;52.830;13.788;2024-02-04T15:36:26;100697.25;;;8.05;75.49
21449;BME280;10885;52.830;13.788;2024-02-04T15:41:28;100695.47;;;8.04;75.75
21449;BME280;10885;52.830;13.788;2024-02-04T15:46:31;100697.13;;;8.03;76.19
21449;BME280;10885;52.830;13.788;2024-02-04T15:51:34;100693.59;;;8.01;75.90
21449;BME280;10885;52.830;13.788;2024-02-04T15:56:41;100656.91;;;7.99;77.21
21449;BME280;10885;52.830;13.788;2024-02-04T16:01:47;100686.50;;;7.97;75.84
21449;BME280;10885;52.830;13.788;2024-02-04T16:06:50;100688.91;;;7.95;76.11
21449;BME280;10885;52.830;13.788;2024-02-04T16:17:06;100680.38;;;7.95;76.05
21449;BME280;10885;52.830;13.788;2024-02-04T16:22:15;100669.41;;;7.96;75.85
21449;BME280;10885;52.830;13.788;2024-02-04T16:27:18;100681.38;;;7.97;76.38
21449;BME280;10885;52.830;13.788;2024-02-04T16:32:21;100675.41;;;7.96;76.32
21449;BME280;10885;52.830;13.788;2024-02-04T16:37:24;100666.78;;;7.94;76.34
21449;BME280;10885;52.830;13.788;2024-02-04T16:42:26;100652.25;;;7.93;76.53
21449;BME280;10885;52.830;13.788;2024-02-04T16:47:31;100666.28;;;7.88;76.72
21449;BME280;10885;52.830;13.788;2024-02-04T16:52:34;100654.34;;;7.87;76.57
21449;BME280;10885;52.830;13.788;2024-02-04T16:57:37;100653.47;;;7.87;76.61
21449;BME280;10885;52.830;13.788;2024-02-04T17:02:40;100655.22;;;7.88;76.63
21449;BME280;10885;52.830;13.788;2024-02-04T17:07:43;100658.00;;;7.91;76.83
21449;BME280;10885;52.830;13.788;2024-02-04T17:12:46;100659.00;;;7.93;77.24
21449;BME280;10885;52.830;13.788;2024-02-04T17:18:00;100647.81;;;7.91;77.08
21449;BME280;10885;52.830;13.788;2024-02-04T17:23:08;100652.03;;;7.90;77.19
21449;BME280;10885;52.830;13.788;2024-02-04T17:28:12;100642.59;;;7.89;76.98
21449;BME280;10885;52.830;13.788;2024-02-04T17:33:16;100640.06;;;7.89;77.25
21449;BME280;10885;52.830;13.788;2024-02-04T17:38:19;100641.94;;;7.92;76.80
21449;BME280;10885;52.830;13.788;2024-02-04T17:43:22;100629.44;;;7.95;77.59
21449;BME280;10885;52.830;13.788;2024-02-04T17:48:25;100632.53;;;7.91;76.75
21449;BME280;10885;52.830;13.788;2024-02-04T17:53:28;100620.66;;;7.91;77.42
21449;BME280;10885;52.830;13.788;2024-02-04T17:58:30;100618.56;;;7.86;77.68
21449;BME280;10885;52.830;13.788;2024-02-04T18:03:33;100627.75;;;7.84;77.79
21449;BME280;10885;52.830;13.788;2024-02-04T18:08:38;100636.28;;;7.84;77.72
21449;BME280;10885;52.830;13.788;2024-02-04T18:13:41;100629.53;;;7.85;77.76
21449;BME280;10885;52.830;13.788;2024-02-04T18:18:44;100637.19;;;7.85;77.83
21449;BME280;10885;52.830;13.788;2024-02-04T18:23:47;100620.91;;;7.83;77.88
21449;BME280;10885;52.830;13.788;2024-02-04T18:28:54;100618.56;;;7.86;78.57
21449;BME280;10885;52.830;13.788;2024-02-04T18:34:02;100623.66;;;7.86;78.11
21449;BME280;10885;52.830;13.788;2024-02-04T18:39:05;100627.00;;;7.85;78.29
21449;BME280;10885;52.830;13.788;2024-02-04T18:44:09;100615.88;;;7.84;78.47
21449;BME280;10885;52.830;13.788;2024-02-04T18:49:13;100621.91;;;7.85;78.63
21449;BME280;10885;52.830;13.788;2024-02-04T18:54:16;100606.94;;;7.89;78.28
21449;BME280;10885;52.830;13.788;2024-02-04T18:59:19;100608.81;;;7.92;78.38
21449;BME280;10885;52.830;13.788;2024-02-04T19:04:21;100614.81;;;7.92;78.67
21449;BME280;10885;52.830;13.788;2024-02-04T19:09:29;100604.50;;;7.91;79.06
21449;BME280;10885;52.830;13.788;2024-02-04T19:14:32;100610.25;;;7.88;79.17
21449;BME280;10885;52.830;13.788;2024-02-04T19:19:36;100607.59;;;7.87;80.13
21449;BME280;10885;52.830;13.788;2024-02-04T19:24:39;100606.50;;;7.83;80.17
21449;BME280;10885;52.830;13.788;2024-02-04T19:29:42;100613.91;;;7.80;80.73
21449;BME280;10885;52.830;13.788;2024-02-04T19:34:45;100619.53;;;7.76;80.91
21449;BME280;10885;52.830;13.788;2024-02-04T19:39:48;100609.91;;;7.72;81.84
21449;BME280;10885;52.830;13.788;2024-02-04T19:44:50;100613.69;;;7.65;82.75
21449;BME280;10885;52.830;13.788;2024-02-04T19:49:53;100609.56;;;7.55;83.73
21449;BME280;10885;52.830;13.788;2024-02-04T19:54:56;100616.50;;;7.46;84.69
21449;BME280;10885;52.830;13.788;2024-02-04T19:59:59;100606.53;;;7.37;86.55
21449;BME280;10885;52.830;13.788;2024-02-04T20:05:02;100600.00;;;7.29;86.10
21449;BME280;10885;52.830;13.788;2024-02-04T20:10:05;100578.63;;;7.27;86.67
21449;BME280;10885;52.830;13.788;2024-02-04T20:15:08;100574.31;;;7.26;86.83
21449;BME280;10885;52.830;13.788;2024-02-04T20:20:11;100569.34;;;7.28;86.63
21449;BME280;10885;52.830;13.788;2024-02-04T20:25:14;100552.50;;;7.30;86.45
21449;BME280;10885;52.830;13.788;2024-02-04T20:30:17;100551.19;;;7.35;85.52
21449;BME280;10885;52.830;13.788;2024-02-04T20:35:21;100555.63;;;7.37;85.42
21449;BME280;10885;52.830;13.788;2024-02-04T20:40:25;100555.75;;;7.39;85.83
21449;BME280;10885;52.830;13.788;2024-02-04T20:45:28;100547.44;;;7.42;85.98
21449;BME280;10885;52.830;13.788;2024-02-04T20:50:31;100535.50;;;7.41;85.95
21449;BME280;10885;52.830;13.788;2024-02-04T20:55:34;100530.28;;;7.39;85.95
21449;BME280;10885;52.830;13.788;2024-02-04T21:00:36;100519.97;;;7.37;86.56
21449;BME280;10885;52.830;13.788;2024-02-04T21:05:40;100514.66;;;7.34;87.38
21449;BME280;10885;52.830;13.788;2024-02-04T21:10:43;100517.88;;;7.32;87.40
21449;BME280;10885;52.830;13.788;2024-02-04T21:15:45;100510.91;;;7.29;87.51
21449;BME280;10885;52.830;13.788;2024-02-04T21:20:48;100494.28;;;7.23;88.30
21449;BME280;10885;52.830;13.788;2024-02-04T21:25:51;100489.66;;;7.17;89.25
21449;BME280;10885;52.830;13.788;2024-02-04T21:30:54;100488.66;;;7.15;88.79
21449;BME280;10885;52.830;13.788;2024-02-04T21:35:57;100494.28;;;7.11;89.61
21449;BME280;10885;52.830;13.788;2024-02-04T21:40:59;100495.84;;;7.09;89.62
21449;BME280;10885;52.830;13.788;2024-02-04T21:46:03;100485.19;;;7.03;90.61
21449;BME280;10885;52.830;13.788;2024-02-04T21:51:06;100492.06;;;7.04;90.30
21449;BME280;10885;52.830;13.788;2024-02-04T21:56:09;100461.28;;;7.01;90.79
21449;BME280;10885;52.830;13.788;2024-02-04T22:01:11;100455.13;;;6.97;90.70
21449;BME280;10885;52.830;13.788;2024-02-04T22:06:14;100425.84;;;6.92;91.75
21449;BME280;10885;52.830;13.788;2024-02-04T22:11:17;100441.78;;;6.89;92.06
21449;BME280;10885;52.830;13.788;2024-02-04T22:16:20;100430.50;;;6.86;92.53
21449;BME280;10885;52.830;13.788;2024-02-04T22:21:23;100426.84;;;6.82;93.01
21449;BME280;10885;52.830;13.788;2024-02-04T22:26:25;100432.81;;;6.83;92.24
